Terminal Aerodrome Forecast
Issued by NWS Raleigh/Durham, NC

Home | Current Version | Previous Version | Text Only | Print | Product List | Glossary On
Versions: 1 2 3 4 5 6 7 8 9 10 11 12 13 14 15 16 17 18 19 20 21 22
000
FTUS42 KRAH 291720
TAFRDU
TAF
KRDU 291720Z 2918/3018 24012KT P6SM FEW035 BKN250
     FM300800 21005KT 5SM BR BKN008
     FM301300 21006KT P6SM BKN012
     FM301400 20009KT P6SM BKN018
     FM301600 20010KT P6SM SCT025=

USA.gov is the U.S. government's official web portal to all federal, state and local government web resources and services.